sensor_id;sensor_type;location;lat;lon;timestamp;P1;durP1;ratioP1;P2;durP2;ratioP2
63664;SDS011;49820;33.966;73.390;2023-07-16T01:57:06;18.55;;;13.60;;
63664;SDS011;49820;33.966;73.390;2023-07-16T01:59:35;17.70;;;13.60;;
63664;SDS011;49820;33.966;73.390;2023-07-16T02:02:05;18.20;;;12.95;;
63664;SDS011;49820;33.966;73.390;2023-07-16T02:04:34;17.45;;;12.55;;
63664;SDS011;49820;33.966;73.390;2023-07-16T02:07:04;16.00;;;11.88;;
63664;SDS011;49820;33.966;73.390;2023-07-16T02:09:33;14.80;;;11.02;;
63664;SDS011;49820;33.966;73.390;2023-07-16T02:12:03;15.57;;;11.77;;
63664;SDS011;49820;33.966;73.390;2023-07-16T02:14:32;14.80;;;11.60;;
63664;SDS011;49820;33.966;73.390;2023-07-16T02:17:01;13.40;;;10.83;;
63664;SDS011;49820;33.966;73.390;2023-07-16T02:19:31;14.10;;;9.82;;
63664;SDS011;49820;33.966;73.390;2023-07-16T02:52:44;14.85;;;11.10;;
63664;SDS011;49820;33.966;73.390;2023-07-16T02:55:13;16.52;;;11.70;;
63664;SDS011;49820;33.966;73.390;2023-07-16T02:57:43;14.93;;;11.00;;
63664;SDS011;49820;33.966;73.390;2023-07-16T03:00:13;19.27;;;15.05;;
63664;SDS011;49820;33.966;73.390;2023-07-16T03:02:42;15.40;;;12.95;;
63664;SDS011;49820;33.966;73.390;2023-07-16T03:05:13;16.38;;;14.32;;
63664;SDS011;49820;33.966;73.390;2023-07-16T03:07:42;18.10;;;14.93;;
63664;SDS011;49820;33.966;73.390;2023-07-16T03:10:12;20.83;;;15.40;;
63664;SDS011;49820;33.966;73.390;2023-07-16T03:12:41;16.33;;;13.05;;
63664;SDS011;49820;33.966;73.390;2023-07-16T03:15:10;22.75;;;19.88;;
63664;SDS011;49820;33.966;73.390;2023-07-16T03:17:39;24.13;;;18.10;;
63664;SDS011;49820;33.966;73.390;2023-07-16T03:20:09;18.90;;;15.70;;
63664;SDS011;49820;33.966;73.390;2023-07-16T03:42:06;23.00;;;17.83;;
63664;SDS011;49820;33.966;73.390;2023-07-16T03:44:35;19.23;;;13.53;;
63664;SDS011;49820;33.966;73.390;2023-07-16T03:47:04;17.23;;;12.88;;
63664;SDS011;49820;33.966;73.390;2023-07-16T03:49:34;17.25;;;12.70;;
63664;SDS011;49820;33.966;73.390;2023-07-16T03:52:03;17.05;;;12.95;;
63664;SDS011;49820;33.966;73.390;2023-07-16T03:54:33;17.90;;;13.10;;
63664;SDS011;49820;33.966;73.390;2023-07-16T03:57:04;15.88;;;13.00;;
63664;SDS011;49820;33.966;73.390;2023-07-16T03:59:34;21.52;;;13.68;;
63664;SDS011;49820;33.966;73.390;2023-07-16T04:02:03;17.20;;;13.50;;
63664;SDS011;49820;33.966;73.390;2023-07-16T04:04:32;17.35;;;13.27;;
63664;SDS011;49820;33.966;73.390;2023-07-16T04:07:02;19.48;;;13.13;;
63664;SDS011;49820;33.966;73.390;2023-07-16T04:09:32;18.47;;;13.53;;
63664;SDS011;49820;33.966;73.390;2023-07-16T04:12:00;16.13;;;12.32;;
63664;SDS011;49820;33.966;73.390;2023-07-16T04:14:29;17.30;;;12.88;;
63664;SDS011;49820;33.966;73.390;2023-07-16T04:16:59;16.83;;;13.20;;
63664;SDS011;49820;33.966;73.390;2023-07-16T04:19:28;18.85;;;13.75;;
63664;SDS011;49820;33.966;73.390;2023-07-16T04:21:58;15.60;;;12.35;;
63664;SDS011;49820;33.966;73.390;2023-07-16T04:24:34;16.43;;;12.80;;
63664;SDS011;49820;33.966;73.390;2023-07-16T04:27:03;18.15;;;13.13;;
63664;SDS011;49820;33.966;73.390;2023-07-16T04:29:33;18.42;;;13.63;;
63664;SDS011;49820;33.966;73.390;2023-07-16T04:32:02;17.45;;;13.05;;
63664;SDS011;49820;33.966;73.390;2023-07-16T04:34:31;17.25;;;12.98;;
63664;SDS011;49820;33.966;73.390;2023-07-16T04:37:00;18.35;;;13.40;;
63664;SDS011;49820;33.966;73.390;2023-07-16T04:39:32;17.92;;;13.35;;
63664;SDS011;49820;33.966;73.390;2023-07-16T04:42:01;16.60;;;12.75;;
63664;SDS011;49820;33.966;73.390;2023-07-16T04:44:31;18.75;;;13.93;;
63664;SDS011;49820;33.966;73.390;2023-07-16T04:46:59;17.67;;;13.18;;
63664;SDS011;49820;33.966;73.390;2023-07-16T04:49:28;19.45;;;14.00;;
63664;SDS011;49820;33.966;73.390;2023-07-16T04:51:58;18.23;;;13.68;;
63664;SDS011;49820;33.966;73.390;2023-07-16T04:54:27;18.83;;;13.80;;
63664;SDS011;49820;33.966;73.390;2023-07-16T04:56:55;18.77;;;14.30;;
63664;SDS011;49820;33.966;73.390;2023-07-16T04:59:24;22.37;;;14.90;;
63664;SDS011;49820;33.966;73.390;2023-07-16T05:01:53;20.40;;;14.30;;
63664;SDS011;49820;33.966;73.390;2023-07-16T05:04:22;20.15;;;15.05;;
63664;SDS011;49820;33.966;73.390;2023-07-16T05:06:52;19.15;;;14.52;;
63664;SDS011;49820;33.966;73.390;2023-07-16T05:09:21;19.40;;;15.23;;
63664;SDS011;49820;33.966;73.390;2023-07-16T05:11:50;21.05;;;15.55;;
63664;SDS011;49820;33.966;73.390;2023-07-16T05:14:19;21.13;;;15.00;;
63664;SDS011;49820;33.966;73.390;2023-07-16T05:16:48;22.63;;;15.80;;
63664;SDS011;49820;33.966;73.390;2023-07-16T05:19:21;20.83;;;16.03;;
63664;SDS011;49820;33.966;73.390;2023-07-16T05:21:53;21.13;;;15.65;;
63664;SDS011;49820;33.966;73.390;2023-07-16T05:24:22;20.52;;;15.75;;
63664;SDS011;49820;33.966;73.390;2023-07-16T05:26:52;23.33;;;16.45;;
63664;SDS011;49820;33.966;73.390;2023-07-16T05:29:22;22.03;;;16.67;;
63664;SDS011;49820;33.966;73.390;2023-07-16T05:31:54;23.48;;;17.25;;
63664;SDS011;49820;33.966;73.390;2023-07-16T05:34:23;19.73;;;15.43;;
63664;SDS011;49820;33.966;73.390;2023-07-16T05:36:55;26.20;;;18.08;;
63664;SDS011;49820;33.966;73.390;2023-07-16T05:39:25;23.77;;;17.48;;
63664;SDS011;49820;33.966;73.390;2023-07-16T05:41:54;24.20;;;17.50;;
63664;SDS011;49820;33.966;73.390;2023-07-16T05:44:23;23.33;;;16.98;;
63664;SDS011;49820;33.966;73.390;2023-07-16T05:46:52;24.83;;;17.58;;
63664;SDS011;49820;33.966;73.390;2023-07-16T05:49:21;32.50;;;18.40;;
63664;SDS011;49820;33.966;73.390;2023-07-16T05:51:50;23.88;;;17.45;;
63664;SDS011;49820;33.966;73.390;2023-07-16T05:54:19;23.20;;;16.77;;
63664;SDS011;49820;33.966;73.390;2023-07-16T05:56:49;21.75;;;16.58;;
63664;SDS011;49820;33.966;73.390;2023-07-16T05:59:18;23.40;;;17.90;;
63664;SDS011;49820;33.966;73.390;2023-07-16T06:01:46;24.00;;;17.27;;
63664;SDS011;49820;33.966;73.390;2023-07-16T06:04:15;24.48;;;17.33;;
63664;SDS011;49820;33.966;73.390;2023-07-16T06:06:45;23.88;;;17.77;;
63664;SDS011;49820;33.966;73.390;2023-07-16T06:09:17;24.35;;;17.88;;
63664;SDS011;49820;33.966;73.390;2023-07-16T06:11:46;25.67;;;18.75;;
63664;SDS011;49820;33.966;73.390;2023-07-16T06:14:16;25.20;;;18.40;;
63664;SDS011;49820;33.966;73.390;2023-07-16T06:16:45;25.40;;;17.83;;
63664;SDS011;49820;33.966;73.390;2023-07-16T06:19:14;24.97;;;18.73;;
63664;SDS011;49820;33.966;73.390;2023-07-16T06:21:45;25.38;;;18.33;;
63664;SDS011;49820;33.966;73.390;2023-07-16T06:24:16;25.70;;;17.90;;
63664;SDS011;49820;33.966;73.390;2023-07-16T06:26:47;27.83;;;20.00;;
63664;SDS011;49820;33.966;73.390;2023-07-16T06:29:18;26.27;;;19.65;;
63664;SDS011;49820;33.966;73.390;2023-07-16T06:31:56;26.92;;;18.50;;
63664;SDS011;49820;33.966;73.390;2023-07-16T06:34:27;24.27;;;18.48;;
63664;SDS011;49820;33.966;73.390;2023-07-16T06:36:56;26.50;;;18.13;;
63664;SDS011;49820;33.966;73.390;2023-07-16T06:39:26;21.85;;;15.82;;
63664;SDS011;49820;33.966;73.390;2023-07-16T06:41:55;22.38;;;16.55;;
63664;SDS011;49820;33.966;73.390;2023-07-16T06:44:26;20.67;;;15.82;;
63664;SDS011;49820;33.966;73.390;2023-07-16T06:46:56;20.25;;;15.40;;
63664;SDS011;49820;33.966;73.390;2023-07-16T06:49:25;20.27;;;15.40;;
63664;SDS011;49820;33.966;73.390;2023-07-16T06:51:56;18.85;;;14.52;;
63664;SDS011;49820;33.966;73.390;2023-07-16T06:54:25;17.85;;;12.77;;
63664;SDS011;49820;33.966;73.390;2023-07-16T06:56:54;17.45;;;12.85;;
63664;SDS011;49820;33.966;73.390;2023-07-16T06:59:23;16.55;;;13.10;;
63664;SDS011;49820;33.966;73.390;2023-07-16T07:01:52;17.05;;;13.13;;
63664;SDS011;49820;33.966;73.390;2023-07-16T07:04:27;17.33;;;13.35;;
63664;SDS011;49820;33.966;73.390;2023-07-16T07:06:56;20.40;;;15.02;;
63664;SDS011;49820;33.966;73.390;2023-07-16T07:09:25;23.33;;;15.98;;
63664;SDS011;49820;33.966;73.390;2023-07-16T07:11:53;20.33;;;15.15;;
63664;SDS011;49820;33.966;73.390;2023-07-16T07:14:23;22.60;;;16.27;;
63664;SDS011;49820;33.966;73.390;2023-07-16T07:16:51;19.10;;;15.02;;
63664;SDS011;49820;33.966;73.390;2023-07-16T07:19:21;20.85;;;15.35;;
63664;SDS011;49820;33.966;73.390;2023-07-16T07:21:50;22.92;;;16.55;;
63664;SDS011;49820;33.966;73.390;2023-07-16T07:24:18;22.13;;;15.43;;
63664;SDS011;49820;33.966;73.390;2023-07-16T07:26:49;20.38;;;15.25;;
63664;SDS011;49820;33.966;73.390;2023-07-16T07:29:20;23.48;;;16.55;;
63664;SDS011;49820;33.966;73.390;2023-07-16T07:31:50;22.95;;;16.42;;
63664;SDS011;49820;33.966;73.390;2023-07-16T07:34:21;22.58;;;16.20;;
63664;SDS011;49820;33.966;73.390;2023-07-16T07:36:50;22.75;;;16.75;;
63664;SDS011;49820;33.966;73.390;2023-07-16T07:39:19;24.17;;;17.80;;
63664;SDS011;49820;33.966;73.390;2023-07-16T07:41:50;22.83;;;16.88;;
63664;SDS011;49820;33.966;73.390;2023-07-16T07:44:20;23.23;;;16.75;;
63664;SDS011;49820;33.966;73.390;2023-07-16T07:46:49;22.50;;;16.55;;
63664;SDS011;49820;33.966;73.390;2023-07-16T07:49:19;24.40;;;17.60;;
63664;SDS011;49820;33.966;73.390;2023-07-16T07:51:48;24.90;;;17.25;;
63664;SDS011;49820;33.966;73.390;2023-07-16T07:54:17;22.30;;;15.77;;
63664;SDS011;49820;33.966;73.390;2023-07-16T07:56:47;23.30;;;15.57;;
63664;SDS011;49820;33.966;73.390;2023-07-16T07:59:18;19.73;;;14.18;;
63664;SDS011;49820;33.966;73.390;2023-07-16T08:01:46;20.15;;;14.25;;
63664;SDS011;49820;33.966;73.390;2023-07-16T08:04:17;21.23;;;15.77;;
63664;SDS011;49820;33.966;73.390;2023-07-16T08:06:46;19.67;;;14.75;;
63664;SDS011;49820;33.966;73.390;2023-07-16T08:09:15;20.43;;;15.20;;
63664;SDS011;49820;33.966;73.390;2023-07-16T08:11:45;21.48;;;15.02;;
63664;SDS011;49820;33.966;73.390;2023-07-16T08:14:15;19.63;;;15.60;;
63664;SDS011;49820;33.966;73.390;2023-07-16T08:16:44;21.38;;;15.20;;
63664;SDS011;49820;33.966;73.390;2023-07-16T08:19:12;22.92;;;15.48;;
63664;SDS011;49820;33.966;73.390;2023-07-16T08:21:43;22.30;;;15.75;;
63664;SDS011;49820;33.966;73.390;2023-07-16T08:24:14;22.40;;;15.63;;
63664;SDS011;49820;33.966;73.390;2023-07-16T08:26:44;23.13;;;15.65;;
63664;SDS011;49820;33.966;73.390;2023-07-16T08:29:15;21.70;;;15.55;;
63664;SDS011;49820;33.966;73.390;2023-07-16T08:31:43;22.90;;;15.82;;
63664;SDS011;49820;33.966;73.390;2023-07-16T08:34:12;23.98;;;16.63;;
63664;SDS011;49820;33.966;73.390;2023-07-16T08:36:42;19.70;;;14.85;;
63664;SDS011;49820;33.966;73.390;2023-07-16T08:39:14;16.88;;;11.82;;
63664;SDS011;49820;33.966;73.390;2023-07-16T08:41:47;15.45;;;11.30;;
63664;SDS011;49820;33.966;73.390;2023-07-16T08:44:16;16.70;;;12.05;;
63664;SDS011;49820;33.966;73.390;2023-07-16T08:46:47;17.23;;;11.95;;
63664;SDS011;49820;33.966;73.390;2023-07-16T08:49:18;16.40;;;11.82;;
63664;SDS011;49820;33.966;73.390;2023-07-16T08:51:50;15.63;;;11.85;;
63664;SDS011;49820;33.966;73.390;2023-07-16T08:54:24;21.38;;;14.32;;
63664;SDS011;49820;33.966;73.390;2023-07-16T08:56:53;19.47;;;15.00;;
63664;SDS011;49820;33.966;73.390;2023-07-16T08:59:24;23.45;;;16.33;;
63664;SDS011;49820;33.966;73.390;2023-07-16T09:01:56;21.40;;;15.60;;
63664;SDS011;49820;33.966;73.390;2023-07-16T09:04:26;21.42;;;15.52;;
63664;SDS011;49820;33.966;73.390;2023-07-16T09:06:58;22.63;;;16.45;;
63664;SDS011;49820;33.966;73.390;2023-07-16T09:09:27;16.23;;;12.00;;
63664;SDS011;49820;33.966;73.390;2023-07-16T09:11:57;13.90;;;9.57;;
63664;SDS011;49820;33.966;73.390;2023-07-16T09:14:26;9.80;;;7.30;;
63664;SDS011;49820;33.966;73.390;2023-07-16T09:16:55;6.88;;;5.80;;
63664;SDS011;49820;33.966;73.390;2023-07-16T09:19:25;12.55;;;5.75;;
63664;SDS011;49820;33.966;73.390;2023-07-16T09:21:58;13.02;;;5.10;;
63664;SDS011;49820;33.966;73.390;2023-07-16T09:24:28;19.55;;;5.53;;
63664;SDS011;49820;33.966;73.390;2023-07-16T09:26:58;15.73;;;4.35;;
63664;SDS011;49820;33.966;73.390;2023-07-16T09:29:30;8.10;;;2.33;;
63664;SDS011;49820;33.966;73.390;2023-07-16T09:32:00;95.43;;;6.77;;
63664;SDS011;49820;33.966;73.390;2023-07-16T09:34:33;20.10;;;3.35;;
63664;SDS011;49820;33.966;73.390;2023-07-16T09:37:04;3.00;;;2.28;;
63664;SDS011;49820;33.966;73.390;2023-07-16T09:39:34;4.67;;;3.50;;
63664;SDS011;49820;33.966;73.390;2023-07-16T09:42:04;3.90;;;2.83;;
63664;SDS011;49820;33.966;73.390;2023-07-16T09:44:34;3.85;;;2.90;;
63664;SDS011;49820;33.966;73.390;2023-07-16T09:47:05;5.78;;;3.20;;
63664;SDS011;49820;33.966;73.390;2023-07-16T09:49:37;5.10;;;3.78;;
63664;SDS011;49820;33.966;73.390;2023-07-16T09:52:07;4.85;;;3.42;;
63664;SDS011;49820;33.966;73.390;2023-07-16T09:54:37;4.05;;;3.13;;
63664;SDS011;49820;33.966;73.390;2023-07-16T09:57:09;4.82;;;3.63;;
63664;SDS011;49820;33.966;73.390;2023-07-16T09:59:38;5.53;;;3.43;;
63664;SDS011;49820;33.966;73.390;2023-07-16T10:02:07;4.10;;;3.10;;
63664;SDS011;49820;33.966;73.390;2023-07-16T10:04:40;5.60;;;3.78;;
63664;SDS011;49820;33.966;73.390;2023-07-16T10:07:20;36.78;;;4.78;;
63664;SDS011;49820;33.966;73.390;2023-07-16T10:09:56;43.85;;;3.58;;
63664;SDS011;49820;33.966;73.390;2023-07-16T10:12:31;5.75;;;2.50;;
63664;SDS011;49820;33.966;73.390;2023-07-16T10:15:00;10.38;;;3.78;;
63664;SDS011;49820;33.966;73.390;2023-07-16T10:17:32;5.53;;;3.80;;
63664;SDS011;49820;33.966;73.390;2023-07-16T10:22:36;6.00;;;4.97;;
63664;SDS011;49820;33.966;73.390;2023-07-16T10:27:48;3.95;;;3.15;;
63664;SDS011;49820;33.966;73.390;2023-07-16T10:30:18;3.90;;;3.13;;
63664;SDS011;49820;33.966;73.390;2023-07-16T10:32:50;5.75;;;3.53;;
63664;SDS011;49820;33.966;73.390;2023-07-16T10:35:21;5.97;;;4.38;;
63664;SDS011;49820;33.966;73.390;2023-07-16T10:37:50;6.93;;;4.97;;
63664;SDS011;49820;33.966;73.390;2023-07-16T10:40:19;6.30;;;4.35;;
63664;SDS011;49820;33.966;73.390;2023-07-16T10:42:47;28.65;;;5.93;;
63664;SDS011;49820;33.966;73.390;2023-07-16T10:45:16;69.75;;;7.53;;
63664;SDS011;49820;33.966;73.390;2023-07-16T10:47:52;33.47;;;5.82;;
63664;SDS011;49820;33.966;73.390;2023-07-16T10:50:23;23.02;;;5.65;;
63664;SDS011;49820;33.966;73.390;2023-07-16T10:52:52;9.57;;;4.70;;
63664;SDS011;49820;33.966;73.390;2023-07-16T10:55:26;10.43;;;5.55;;
63664;SDS011;49820;33.966;73.390;2023-07-16T10:57:58;5.85;;;4.05;;
63664;SDS011;49820;33.966;73.390;2023-07-16T11:00:36;5.90;;;4.43;;
63664;SDS011;49820;33.966;73.390;2023-07-16T11:03:07;7.75;;;4.57;;
63664;SDS011;49820;33.966;73.390;2023-07-16T11:05:39;10.63;;;4.70;;
63664;SDS011;49820;33.966;73.390;2023-07-16T11:08:08;8.05;;;4.78;;
63664;SDS011;49820;33.966;73.390;2023-07-16T11:10:37;8.50;;;4.20;;
63664;SDS011;49820;33.966;73.390;2023-07-16T11:13:06;9.15;;;5.32;;
63664;SDS011;49820;33.966;73.390;2023-07-16T11:15:35;7.82;;;4.70;;
63664;SDS011;49820;33.966;73.390;2023-07-16T11:18:05;8.48;;;3.95;;
63664;SDS011;49820;33.966;73.390;2023-07-16T11:20:35;7.75;;;4.28;;
63664;SDS011;49820;33.966;73.390;2023-07-16T11:23:03;8.30;;;4.10;;
63664;SDS011;49820;33.966;73.390;2023-07-16T11:25:33;16.70;;;4.85;;
63664;SDS011;49820;33.966;73.390;2023-07-16T11:28:02;6.38;;;4.55;;
63664;SDS011;49820;33.966;73.390;2023-07-16T11:30:31;5.68;;;4.68;;
63664;SDS011;49820;33.966;73.390;2023-07-16T11:33:01;5.97;;;4.45;;
63664;SDS011;49820;33.966;73.390;2023-07-16T11:35:30;6.15;;;4.18;;
63664;SDS011;49820;33.966;73.390;2023-07-16T11:38:00;6.33;;;3.83;;
63664;SDS011;49820;33.966;73.390;2023-07-16T11:40:29;7.80;;;4.30;;
63664;SDS011;49820;33.966;73.390;2023-07-16T11:43:06;9.80;;;4.57;;
63664;SDS011;49820;33.966;73.390;2023-07-16T11:45:39;4.43;;;3.65;;
63664;SDS011;49820;33.966;73.390;2023-07-16T11:48:09;9.88;;;3.97;;
63664;SDS011;49820;33.966;73.390;2023-07-16T11:50:38;9.27;;;4.30;;
63664;SDS011;49820;33.966;73.390;2023-07-16T11:53:07;5.55;;;4.30;;
63664;SDS011;49820;33.966;73.390;2023-07-16T11:55:36;6.15;;;4.13;;
63664;SDS011;49820;33.966;73.390;2023-07-16T11:58:05;8.32;;;4.03;;
63664;SDS011;49820;33.966;73.390;2023-07-16T12:00:34;7.18;;;3.50;;
63664;SDS011;49820;33.966;73.390;2023-07-16T12:03:03;7.55;;;4.63;;
63664;SDS011;49820;33.966;73.390;2023-07-16T12:05:32;10.52;;;4.95;;
63664;SDS011;49820;33.966;73.390;2023-07-16T12:08:17;8.27;;;4.93;;
63664;SDS011;49820;33.966;73.390;2023-07-16T12:10:47;6.93;;;5.25;;
63664;SDS011;49820;33.966;73.390;2023-07-16T12:13:16;9.30;;;5.33;;
63664;SDS011;49820;33.966;73.390;2023-07-16T12:15:44;11.10;;;5.35;;
63664;SDS011;49820;33.966;73.390;2023-07-16T12:18:14;10.95;;;5.45;;
63664;SDS011;49820;33.966;73.390;2023-07-16T12:20:42;6.80;;;4.50;;
63664;SDS011;49820;33.966;73.390;2023-07-16T12:23:11;8.60;;;4.90;;
63664;SDS011;49820;33.966;73.390;2023-07-16T12:25:40;8.18;;;5.55;;
63664;SDS011;49820;33.966;73.390;2023-07-16T12:28:14;9.70;;;5.50;;
63664;SDS011;49820;33.966;73.390;2023-07-16T12:30:43;8.27;;;5.15;;
63664;SDS011;49820;33.966;73.390;2023-07-16T12:33:12;6.35;;;5.10;;
63664;SDS011;49820;33.966;73.390;2023-07-16T12:35:41;6.55;;;4.22;;
63664;SDS011;49820;33.966;73.390;2023-07-16T12:38:12;9.07;;;5.53;;
63664;SDS011;49820;33.966;73.390;2023-07-16T12:40:41;11.55;;;5.50;;
63664;SDS011;49820;33.966;73.390;2023-07-16T12:43:11;10.85;;;6.10;;
63664;SDS011;49820;33.966;73.390;2023-07-16T12:45:40;9.50;;;5.10;;
63664;SDS011;49820;33.966;73.390;2023-07-16T12:48:09;9.60;;;4.90;;
63664;SDS011;49820;33.966;73.390;2023-07-16T12:50:38;9.90;;;5.57;;
63664;SDS011;49820;33.966;73.390;2023-07-16T12:53:10;8.27;;;5.13;;
63664;SDS011;49820;33.966;73.390;2023-07-16T12:55:40;11.27;;;6.07;;
63664;SDS011;49820;33.966;73.390;2023-07-16T12:58:09;10.90;;;5.43;;
63664;SDS011;49820;33.966;73.390;2023-07-16T13:00:38;11.07;;;6.32;;
63664;SDS011;49820;33.966;73.390;2023-07-16T13:03:11;12.70;;;5.88;;
63664;SDS011;49820;33.966;73.390;2023-07-16T13:05:45;8.60;;;5.80;;
63664;SDS011;49820;33.966;73.390;2023-07-16T13:08:15;9.57;;;5.87;;
63664;SDS011;49820;33.966;73.390;2023-07-16T13:10:44;10.18;;;6.00;;
63664;SDS011;49820;33.966;73.390;2023-07-16T13:13:14;13.23;;;5.68;;
63664;SDS011;49820;33.966;73.390;2023-07-16T13:15:43;11.65;;;5.72;;
63664;SDS011;49820;33.966;73.390;2023-07-16T13:18:13;9.33;;;5.70;;
63664;SDS011;49820;33.966;73.390;2023-07-16T13:20:42;9.43;;;5.70;;
63664;SDS011;49820;33.966;73.390;2023-07-16T13:23:11;7.15;;;5.10;;
63664;SDS011;49820;33.966;73.390;2023-07-16T13:25:41;8.05;;;5.10;;
63664;SDS011;49820;33.966;73.390;2023-07-16T13:28:10;6.90;;;4.50;;
63664;SDS011;49820;33.966;73.390;2023-07-16T13:30:39;6.72;;;4.70;;
63664;SDS011;49820;33.966;73.390;2023-07-16T13:33:08;9.68;;;4.85;;
63664;SDS011;49820;33.966;73.390;2023-07-16T13:35:39;5.43;;;4.30;;
63664;SDS011;49820;33.966;73.390;2023-07-16T13:38:08;5.63;;;4.28;;
63664;SDS011;49820;33.966;73.390;2023-07-16T13:40:38;6.75;;;4.57;;
63664;SDS011;49820;33.966;73.390;2023-07-16T13:43:07;7.18;;;4.28;;
63664;SDS011;49820;33.966;73.390;2023-07-16T13:45:38;6.72;;;4.10;;
63664;SDS011;49820;33.966;73.390;2023-07-16T13:48:07;6.05;;;4.57;;
63664;SDS011;49820;33.966;73.390;2023-07-16T13:50:37;8.37;;;7.07;;
63664;SDS011;49820;33.966;73.390;2023-07-16T13:53:06;7.78;;;5.90;;
63664;SDS011;49820;33.966;73.390;2023-07-16T13:55:35;5.63;;;4.32;;
63664;SDS011;49820;33.966;73.390;2023-07-16T13:58:04;4.82;;;4.00;;
63664;SDS011;49820;33.966;73.390;2023-07-16T14:00:33;6.18;;;4.30;;
63664;SDS011;49820;33.966;73.390;2023-07-16T14:03:02;6.35;;;4.60;;
63664;SDS011;49820;33.966;73.390;2023-07-16T14:05:32;6.68;;;5.25;;
63664;SDS011;49820;33.966;73.390;2023-07-16T14:08:06;9.38;;;5.50;;
63664;SDS011;49820;33.966;73.390;2023-07-16T14:10:36;8.50;;;5.87;;
63664;SDS011;49820;33.966;73.390;2023-07-16T14:13:06;10.40;;;7.90;;
63664;SDS011;49820;33.966;73.390;2023-07-16T14:15:35;11.30;;;9.32;;
63664;SDS011;49820;33.966;73.390;2023-07-16T14:18:04;12.23;;;9.90;;
63664;SDS011;49820;33.966;73.390;2023-07-16T14:20:34;9.50;;;6.40;;
63664;SDS011;49820;33.966;73.390;2023-07-16T14:23:03;9.35;;;6.80;;
63664;SDS011;49820;33.966;73.390;2023-07-16T14:25:32;12.82;;;9.05;;
63664;SDS011;49820;33.966;73.390;2023-07-16T14:28:01;14.82;;;10.80;;
63664;SDS011;49820;33.966;73.390;2023-07-16T14:30:31;10.23;;;7.70;;
63664;SDS011;49820;33.966;73.390;2023-07-16T14:32:59;9.20;;;5.93;;
63664;SDS011;49820;33.966;73.390;2023-07-16T14:35:32;7.78;;;5.70;;
63664;SDS011;49820;33.966;73.390;2023-07-16T14:38:05;9.90;;;5.33;;
